Time;durP1;ratioP1;P1;durP2;ratioP2;P2;SDS_P1;SDS_P2;PMS_P1;PMS_P2;Temp;Humidity;BMP_temperature;BMP_pressure;BME280_temperature;BME280_humidity;BME280_pressure;Samples;Min_cycle;Max_cycle;Signal;HPM_P1;HPM_P2
2022/11/26 00:00:33;;;;;;;;;;;;;;;3.03;100.00;100392.19;10213710;23;19934;-75
2022/11/26 00:04:34;;;;;;;;;;;;;;;2.98;100.00;100388.56;10222061;23;19982;-76
2022/11/26 00:08:36;;;;;;;;;;;;;;;2.97;100.00;100402.19;10196398;23;20004;-76
2022/11/26 00:12:37;;;;;;;;;;;;;;;2.97;100.00;100404.75;10195272;23;20074;-76
2022/11/26 00:16:39;;;;;;;;;;;;;;;2.95;100.00;100419.22;10191435;23;19924;-75
2022/11/26 00:20:41;;;;;;;;;;;;;;;2.98;100.00;100421.03;10223808;23;19974;-76
2022/11/26 00:24:42;;;;;;;;;;;;;;;3.07;100.00;100424.00;10224736;23;20019;-75
2022/11/26 00:28:48;;;;;;;;;;;;;;;3.09;100.00;100424.06;10225742;23;19924;-76
2022/11/26 00:37:00;;;;;;;;;;;;;;;3.07;100.00;100431.69;10173092;23;19936;-76
2022/11/26 00:41:01;;;;;;;;;;;;;;;3.08;100.00;100441.16;10199908;23;19966;-76
2022/11/26 00:45:05;;;;;;;;;;;;;;;3.13;100.00;100452.47;10167881;23;20008;-76
2022/11/26 00:49:06;;;;;;;;;;;;;;;3.11;100.00;100442.97;10149823;23;19999;-76
2022/11/26 00:53:10;;;;;;;;;;;;;;;3.12;100.00;100455.84;10150997;23;19952;-76
2022/11/26 00:57:12;;;;;;;;;;;;;;;3.09;100.00;100457.41;10175724;23;19929;-76
2022/11/26 01:01:16;;;;;;;;;;;;;;;3.07;100.00;100464.19;10166969;23;19991;-76
2022/11/26 01:05:18;;;;;;;;;;;;;;;3.01;100.00;100465.66;10150184;23;19975;-76
2022/11/26 01:09:20;;;;;;;;;;;;;;;2.98;100.00;100472.34;10175393;23;20003;-75
2022/11/26 01:13:21;;;;;;;;;;;;;;;2.91;100.00;100470.34;10150711;23;19932;-73
2022/11/26 01:17:23;;;;;;;;;;;;;;;2.89;100.00;100489.91;10167822;23;19991;-73
2022/11/26 01:21:25;;;;;;;;;;;;;;;2.84;100.00;100486.25;10150619;23;19975;-73
2022/11/26 01:25:26;;;;;;;;;;;;;;;2.72;100.00;100490.03;10176285;23;19924;-73
2022/11/26 01:29:28;;;;;;;;;;;;;;;2.67;100.00;100495.75;10175067;23;19967;-73
2022/11/26 01:33:29;;;;;;;;;;;;;;;2.70;100.00;100506.19;10166093;23;19920;-73
2022/11/26 01:37:30;;;;;;;;;;;;;;;2.70;100.00;100496.78;10176745;23;19999;-73
2022/11/26 01:41:50;;;;;;;;;;;;;;;2.70;100.00;100506.19;10150319;23;20546;-73
2022/11/26 01:45:52;;;;;;;;;;;;;;;2.65;100.00;100505.06;10149511;23;20003;-73
2022/11/26 01:50:12;;;;;;;;;;;;;;;2.67;100.00;100509.44;10173771;23;20608;-73
2022/11/26 01:54:15;;;;;;;;;;;;;;;2.72;100.00;100500.31;10198205;23;20035;-73
2022/11/26 01:58:19;;;;;;;;;;;;;;;2.81;100.00;100506.63;10172520;23;19925;-73
2022/11/26 02:02:23;;;;;;;;;;;;;;;2.89;100.00;100506.19;10165319;23;20007;-73
2022/11/26 02:06:28;;;;;;;;;;;;;;;2.93;100.00;100512.31;10175769;23;19928;-73
2022/11/26 02:10:30;;;;;;;;;;;;;;;2.96;100.00;100508.19;10172846;23;19987;-73
2022/11/26 02:14:34;;;;;;;;;;;;;;;3.02;100.00;100516.13;10149766;23;19929;-73
2022/11/26 02:18:40;;;;;;;;;;;;;;;3.10;100.00;100511.38;10167024;23;20479;-73
2022/11/26 02:23:00;;;;;;;;;;;;;;;3.17;100.00;100515.94;10174956;23;19971;-73
2022/11/26 02:27:15;;;;;;;;;;;;;;;3.24;100.00;100527.38;10175484;23;19959;-73
2022/11/26 02:31:25;;;;;;;;;;;;;;;3.30;100.00;100507.09;10166613;23;19924;-73
2022/11/26 02:35:40;;;;;;;;;;;;;;;3.33;100.00;100513.22;10171916;23;20244;-73
2022/11/26 02:39:41;;;;;;;;;;;;;;;3.37;100.00;100500.50;10172309;23;20260;-73
2022/11/26 02:43:43;;;;;;;;;;;;;;;3.43;100.00;100493.97;10173095;23;19925;-73
2022/11/26 02:47:46;;;;;;;;;;;;;;;3.47;100.00;100500.97;10163574;23;20503;-73
2022/11/26 02:51:51;;;;;;;;;;;;;;;3.54;100.00;100502.97;10171822;23;19924;-73
2022/11/26 02:55:59;;;;;;;;;;;;;;;3.56;100.00;100503.91;10196434;23;20363;-73
2022/11/26 03:00:01;;;;;;;;;;;;;;;3.57;100.00;100513.34;10171994;23;19929;-73
2022/11/26 03:04:08;;;;;;;;;;;;;;;3.55;100.00;100506.41;10175848;23;19928;-73
2022/11/26 03:08:09;;;;;;;;;;;;;;;3.56;100.00;100509.03;10177734;23;19983;-73
2022/11/26 03:12:11;;;;;;;;;;;;;;;3.55;100.00;100509.84;10152820;23;19925;-73
2022/11/26 03:16:12;;;;;;;;;;;;;;;3.58;100.00;100512.53;10172913;23;19925;-73
2022/11/26 03:20:14;;;;;;;;;;;;;;;3.68;100.00;100506.09;10179137;23;19920;-73
2022/11/26 03:24:15;;;;;;;;;;;;;;;3.79;100.00;100510.00;10180788;23;20312;-73
2022/11/26 03:28:16;;;;;;;;;;;;;;;3.86;100.00;100504.28;10179367;23;19975;-73
2022/11/26 03:32:18;;;;;;;;;;;;;;;3.93;100.00;100507.97;10171158;23;19921;-73
2022/11/26 03:36:19;;;;;;;;;;;;;;;3.95;100.00;100508.94;10175915;23;20640;-73
2022/11/26 03:40:20;;;;;;;;;;;;;;;3.99;100.00;100520.19;10152617;23;19928;-73
2022/11/26 03:44:21;;;;;;;;;;;;;;;3.94;100.00;100518.31;10176647;23;20476;-73
2022/11/26 03:48:23;;;;;;;;;;;;;;;3.99;100.00;100527.91;10170525;23;20019;-73
2022/11/26 03:52:24;;;;;;;;;;;;;;;3.95;100.00;100526.91;10175495;23;19986;-73
2022/11/26 03:56:25;;;;;;;;;;;;;;;3.93;100.00;100534.53;10175530;23;19924;-73
2022/11/26 04:00:27;;;;;;;;;;;;;;;4.00;100.00;100538.25;10169858;23;20015;-73
2022/11/26 04:04:28;;;;;;;;;;;;;;;4.06;100.00;100541.06;10172535;23;19924;-73
2022/11/26 04:08:29;;;;;;;;;;;;;;;4.12;100.00;100540.41;10172152;23;20288;-73
2022/11/26 04:12:31;;;;;;;;;;;;;;;4.16;100.00;100550.91;10169430;23;19956;-73
2022/11/26 04:16:32;;;;;;;;;;;;;;;4.20;100.00;100546.75;10140453;23;19930;-73
2022/11/26 04:20:34;;;;;;;;;;;;;;;4.24;100.00;100544.34;10173960;23;19967;-73
2022/11/26 04:24:35;;;;;;;;;;;;;;;4.28;100.00;100544.47;10173915;23;19924;-73
2022/11/26 04:28:37;;;;;;;;;;;;;;;4.33;100.00;100553.25;10148449;23;19952;-73
2022/11/26 04:32:38;;;;;;;;;;;;;;;4.36;100.00;100571.38;10166799;23;19958;-73
2022/11/26 04:36:40;;;;;;;;;;;;;;;4.33;100.00;100573.81;10170141;23;20515;-73
2022/11/26 04:40:41;;;;;;;;;;;;;;;4.35;100.00;100585.91;10170786;23;19952;-73
2022/11/26 04:44:42;;;;;;;;;;;;;;;4.41;100.00;100593.88;10169967;23;19929;-73
2022/11/26 04:48:44;;;;;;;;;;;;;;;4.48;100.00;100612.97;10173058;23;20004;-73
2022/11/26 04:52:48;;;;;;;;;;;;;;;4.50;100.00;100606.22;10170789;23;19952;-73
2022/11/26 04:56:49;;;;;;;;;;;;;;;4.53;100.00;100612.34;10170466;23;19974;-73
2022/11/26 05:00:51;;;;;;;;;;;;;;;4.58;100.00;100627.97;10172586;23;19983;-73
2022/11/26 05:04:52;;;;;;;;;;;;;;;4.62;100.00;100629.84;10174361;23;20612;-73
2022/11/26 05:08:54;;;;;;;;;;;;;;;4.64;100.00;100637.59;10174477;23;19983;-73
2022/11/26 05:12:55;;;;;;;;;;;;;;;4.66;100.00;100647.13;10172064;23;19933;-73
2022/11/26 05:16:57;;;;;;;;;;;;;;;4.71;100.00;100657.63;10165945;23;19979;-73
2022/11/26 05:20:58;;;;;;;;;;;;;;;4.78;100.00;100657.03;10176158;23;19947;-73
2022/11/26 05:25:00;;;;;;;;;;;;;;;4.81;100.00;100657.16;10176427;23;19932;-73
2022/11/26 05:29:01;;;;;;;;;;;;;;;4.82;100.00;100669.19;10174908;23;19956;-73
2022/11/26 05:33:03;;;;;;;;;;;;;;;4.84;100.00;100663.28;10166141;23;20339;-72
2022/11/26 05:37:04;;;;;;;;;;;;;;;4.88;100.00;100660.88;10148006;23;20020;-73
2022/11/26 05:41:06;;;;;;;;;;;;;;;4.94;100.00;100655.94;10172316;23;20016;-73
2022/11/26 05:45:07;;;;;;;;;;;;;;;4.99;100.00;100638.97;10167372;23;20011;-73
2022/11/26 05:49:09;;;;;;;;;;;;;;;5.02;100.00;100634.81;10149072;23;19935;-73
2022/11/26 05:53:10;;;;;;;;;;;;;;;5.04;100.00;100642.63;10175206;23;19925;-73
2022/11/26 05:57:12;;;;;;;;;;;;;;;5.04;100.00;100632.31;10176413;23;19924;-73
2022/11/26 06:01:13;;;;;;;;;;;;;;;5.08;100.00;100634.19;10199300;23;19952;-74
2022/11/26 06:05:14;;;;;;;;;;;;;;;5.10;100.00;100635.13;10175723;23;19924;-73
2022/11/26 06:09:16;;;;;;;;;;;;;;;5.11;100.00;100640.31;10149903;23;19929;-73
2022/11/26 06:13:17;;;;;;;;;;;;;;;5.10;100.00;100635.13;10174024;23;19959;-73
2022/11/26 06:17:19;;;;;;;;;;;;;;;5.16;100.00;100640.47;10149142;23;19967;-73
2022/11/26 06:21:20;;;;;;;;;;;;;;;5.16;100.00;100645.63;10148892;23;20015;-73
2022/11/26 06:25:21;;;;;;;;;;;;;;;5.20;100.00;100644.03;10173016;23;19971;-73
2022/11/26 06:29:23;;;;;;;;;;;;;;;5.21;100.00;100643.25;10149781;23;20307;-73
2022/11/26 06:33:28;;;;;;;;;;;;;;;5.24;100.00;100648.50;10163751;23;20267;-73
2022/11/26 06:37:30;;;;;;;;;;;;;;;5.25;100.00;100655.41;10174913;23;20003;-76
2022/11/26 06:41:31;;;;;;;;;;;;;;;5.26;100.00;100657.16;10173858;23;20026;-76
2022/11/26 06:45:34;;;;;;;;;;;;;;;5.28;100.00;100660.66;10164825;23;19952;-74
2022/11/26 06:49:35;;;;;;;;;;;;;;;5.31;100.00;100660.78;10172502;23;20020;-76
2022/11/26 06:53:37;;;;;;;;;;;;;;;5.37;100.00;100673.88;10172735;23;20511;-76
2022/11/26 06:57:38;;;;;;;;;;;;;;;5.33;100.00;100693.47;10172006;23;19924;-76
2022/11/26 07:01:39;;;;;;;;;;;;;;;5.38;100.00;100697.09;10164550;23;19924;-76
2022/11/26 07:05:47;;;;;;;;;;;;;;;5.42;100.00;100705.84;10147202;23;19956;-76
2022/11/26 07:09:50;;;;;;;;;;;;;;;5.44;100.00;100705.06;10172627;23;20007;-76
2022/11/26 07:13:54;;;;;;;;;;;;;;;5.46;100.00;100707.72;10171898;23;19959;-76
2022/11/26 07:17:56;;;;;;;;;;;;;;;5.50;100.00;100714.72;10171755;23;19929;-77
2022/11/26 07:21:58;;;;;;;;;;;;;;;5.52;100.00;100723.38;10176657;23;19925;-77
2022/11/26 07:26:00;;;;;;;;;;;;;;;5.58;100.00;100723.63;10179004;23;20461;-77
2022/11/26 07:30:01;;;;;;;;;;;;;;;5.62;100.00;100729.75;10177941;23;19996;-77
2022/11/26 07:34:03;;;;;;;;;;;;;;;5.65;100.00;100741.06;10154279;23;19925;-77
2022/11/26 07:38:05;;;;;;;;;;;;;;;5.71;100.00;100732.66;10180656;23;19925;-78
2022/11/26 07:42:06;;;;;;;;;;;;;;;5.76;100.00;100731.16;10155017;23;20015;-77
2022/11/26 07:46:09;;;;;;;;;;;;;;;5.74;100.00;100730.19;10149168;23;19977;-77
2022/11/26 07:50:11;;;;;;;;;;;;;;;5.79;100.00;100749.31;10177481;23;20505;-77
2022/11/26 07:54:13;;;;;;;;;;;;;;;5.87;100.00;100760.75;10176452;23;20351;-77
2022/11/26 07:58:14;;;;;;;;;;;;;;;5.93;100.00;100761.03;10176292;23;19924;-76
2022/11/26 08:02:15;;;;;;;;;;;;;;;5.98;100.00;100768.91;10145409;23;19982;-77
2022/11/26 08:06:18;;;;;;;;;;;;;;;6.03;100.00;100770.84;10177075;23;19921;-77
2022/11/26 08:10:19;;;;;;;;;;;;;;;6.06;100.00;100772.63;10178169;23;19925;-76
2022/11/26 08:14:21;;;;;;;;;;;;;;;6.12;100.00;100767.72;10153267;23;19924;-77
2022/11/26 08:18:22;;;;;;;;;;;;;;;6.18;100.00;100772.22;10171183;23;19979;-77
2022/11/26 08:22:24;;;;;;;;;;;;;;;6.23;100.00;100761.22;10176511;23;19925;-77
2022/11/26 08:26:25;;;;;;;;;;;;;;;6.29;100.00;100765.75;10177209;23;19925;-77
2022/11/26 08:30:35;;;;;;;;;;;;;;;6.35;100.00;100763.34;10169120;23;19924;-77
2022/11/26 08:34:36;;;;;;;;;;;;;;;6.44;100.00;100775.69;10178084;23;19929;-76
2022/11/26 08:38:38;;;;;;;;;;;;;;;6.50;100.00;100766.47;10178241;23;19937;-77
2022/11/26 08:42:39;;;;;;;;;;;;;;;6.56;100.00;100771.81;10177711;23;19992;-76
2022/11/26 08:46:41;;;;;;;;;;;;;;;6.64;100.00;100772.06;10172061;23;19925;-77
2022/11/26 08:50:42;;;;;;;;;;;;;;;6.69;100.00;100770.53;10153244;23;19924;-77
2022/11/26 08:54:43;;;;;;;;;;;;;;;6.75;100.00;100775.91;10177732;23;19924;-77
2022/11/26 08:58:47;;;;;;;;;;;;;;;6.81;100.00;100780.38;10177218;23;20214;-78
2022/11/26 09:02:49;;;;;;;;;;;;;;;6.84;100.00;100776.22;10172221;23;19931;-77
2022/11/26 09:06:50;;;;;;;;;;;;;;;6.93;100.00;100771.34;10180901;23;20379;-79
2022/11/26 09:10:53;;;;;;;;;;;;;;;6.97;100.00;100772.31;10155007;23;19966;-79
2022/11/26 09:14:55;;;;;;;;;;;;;;;7.02;100.00;100772.47;10179941;23;20622;-78
2022/11/26 09:18:58;;;;;;;;;;;;;;;7.09;100.00;100771.81;10172633;23;20406;-78
2022/11/26 09:22:59;;;;;;;;;;;;;;;7.14;100.00;100765.97;10180451;23;20287;-78
2022/11/26 09:27:00;;;;;;;;;;;;;;;7.23;100.00;100767.97;10180876;23;20548;-78
2022/11/26 09:31:08;;;;;;;;;;;;;;;7.33;100.00;100769.13;10172901;23;20402;-77
2022/11/26 09:35:09;;;;;;;;;;;;;;;7.43;100.00;100760.84;10174779;23;19921;-78
2022/11/26 09:39:12;;;;;;;;;;;;;;;7.51;100.00;100765.38;10175994;23;20383;-78
2022/11/26 09:43:25;;;;;;;;;;;;;;;7.59;100.00;100778.56;10154461;23;19920;-77
2022/11/26 09:47:30;;;;;;;;;;;;;;;7.66;100.00;100780.47;10196776;23;20487;-77
2022/11/26 09:51:32;;;;;;;;;;;;;;;7.71;100.00;100776.31;10150111;23;19924;-77
2022/11/26 09:55:35;;;;;;;;;;;;;;;7.65;99.17;100789.06;10176343;23;19964;-77
2022/11/26 09:59:37;;;;;;;;;;;;;;;7.68;99.13;100772.78;10174922;23;19928;-77
2022/11/26 10:03:38;;;;;;;;;;;;;;;7.73;98.83;100774.69;10143222;23;19935;-77
2022/11/26 10:07:53;;;;;;;;;;;;;;;7.76;98.71;100769.59;10175583;23;19925;-77
2022/11/26 10:11:58;;;;;;;;;;;;;;;7.81;97.95;100764.53;10175832;23;19932;-77
2022/11/26 10:16:17;;;;;;;;;;;;;;;7.82;97.99;100767.16;10168076;23;19981;-77
2022/11/26 10:20:25;;;;;;;;;;;;;;;7.83;97.52;100756.00;10173571;23;20514;-78
2022/11/26 10:24:35;;;;;;;;;;;;;;;7.85;97.73;100759.50;10150875;23;20554;-78
2022/11/26 10:28:45;;;;;;;;;;;;;;;7.87;97.03;100751.78;10176184;23;19924;-78
2022/11/26 10:32:48;;;;;;;;;;;;;;;7.92;97.01;100749.34;10178143;23;19924;-78
2022/11/26 10:36:49;;;;;;;;;;;;;;;8.03;97.22;100750.50;10180347;23;19925;-78
2022/11/26 10:40:51;;;;;;;;;;;;;;;8.06;96.82;100751.47;10177933;23;19994;-78
2022/11/26 10:44:52;;;;;;;;;;;;;;;8.08;96.18;100756.69;10155160;23;19960;-78
2022/11/26 10:49:13;;;;;;;;;;;;;;;8.02;94.60;100753.94;10147869;23;19925;-78
2022/11/26 10:53:19;;;;;;;;;;;;;;;7.96;94.42;100767.56;10180309;23;20276;-78
2022/11/26 10:57:21;;;;;;;;;;;;;;;7.97;93.68;100758.97;10179238;23;19932;-78
2022/11/26 11:01:22;;;;;;;;;;;;;;;8.04;94.39;100747.97;10170480;23;19920;-77
2022/11/26 11:05:23;;;;;;;;;;;;;;;8.04;94.04;100752.25;10175362;23;19931;-77
2022/11/26 11:09:31;;;;;;;;;;;;;;;7.98;93.76;100758.16;10174144;23;20212;-77
2022/11/26 11:13:40;;;;;;;;;;;;;;;8.00;94.26;100751.28;10149012;23;19932;-77
2022/11/26 11:17:42;;;;;;;;;;;;;;;7.97;93.61;100755.50;10166462;23;19924;-77
2022/11/26 11:21:44;;;;;;;;;;;;;;;7.95;93.49;100759.78;10175167;23;19948;-78
2022/11/26 11:26:29;;;;;;;;;;;;;;;7.92;93.41;100762.28;10173582;23;19924;-78
2022/11/26 11:31:02;;;;;;;;;;;;;;;7.92;93.26;100768.31;9977938;23;19926;-78
2022/11/26 11:35:11;;;;;;;;;;;;;;;7.94;93.14;100774.41;10101634;23;19932;-78
2022/11/26 11:39:26;;;;;;;;;;;;;;;7.97;92.96;100776.22;10180183;23;19925;-78
2022/11/26 11:43:27;;;;;;;;;;;;;;;7.96;92.96;100780.50;10178321;23;20244;-77
2022/11/26 11:47:36;;;;;;;;;;;;;;;7.98;93.59;100775.38;10171021;23;19963;-77
2022/11/26 11:51:43;;;;;;;;;;;;;;;7.94;92.83;100768.38;10178182;23;19994;-78
2022/11/26 11:56:03;;;;;;;;;;;;;;;7.98;93.40;100767.63;10179271;23;19955;-79
2022/11/26 12:00:16;;;;;;;;;;;;;;;8.01;93.66;100754.75;10172244;23;19924;-78
2022/11/26 12:04:20;;;;;;;;;;;;;;;8.06;93.97;100761.81;10178376;23;19968;-78
2022/11/26 12:08:22;;;;;;;;;;;;;;;8.07;94.37;100757.50;10176951;23;19920;-78
2022/11/26 12:12:32;;;;;;;;;;;;;;;8.06;93.94;100750.56;10178963;23;19928;-78
2022/11/26 12:16:36;;;;;;;;;;;;;;;8.03;94.57;100760.84;10171782;23;19998;-79
2022/11/26 12:20:48;;;;;;;;;;;;;;;8.03;94.58;100756.56;10179016;23;20299;-79
2022/11/26 12:24:55;;;;;;;;;;;;;;;8.01;94.42;100752.16;10179830;23;19925;-78
2022/11/26 12:29:11;;;;;;;;;;;;;;;7.99;94.80;100748.66;10202192;23;19980;-78
2022/11/26 12:33:22;;;;;;;;;;;;;;;8.07;94.73;100747.16;10170937;23;20200;-78
2022/11/26 12:37:23;;;;;;;;;;;;;;;8.15;94.80;100749.13;10175687;23;19921;-78
2022/11/26 12:41:44;;;;;;;;;;;;;;;8.18;93.92;100746.63;10175248;23;19932;-80
2022/11/26 12:45:49;;;;;;;;;;;;;;;8.33;94.50;100745.28;10168797;23;20252;-78
2022/11/26 12:50:09;;;;;;;;;;;;;;;8.43;94.29;100739.53;10150108;23;20346;-79
2022/11/26 12:54:20;;;;;;;;;;;;;;;8.57;93.86;100748.53;10150615;23;19933;-79
2022/11/26 12:58:42;;;;;;;;;;;;;;;8.65;93.45;100757.38;10175133;23;19959;-78
2022/11/26 13:02:46;;;;;;;;;;;;;;;8.63;91.49;100747.84;10147111;23;20020;-79
2022/11/26 13:06:47;;;;;;;;;;;;;;;8.66;90.77;100725.47;10175921;23;20519;-79
2022/11/26 13:10:52;;;;;;;;;;;;;;;8.70;90.78;100735.06;10173015;23;19924;-78
2022/11/26 13:15:01;;;;;;;;;;;;;;;8.65;88.52;100731.50;10170884;23;19928;-79
2022/11/26 13:19:06;;;;;;;;;;;;;;;8.66;88.11;100716.84;10172122;23;19927;-80
2022/11/26 13:23:20;;;;;;;;;;;;;;;8.68;89.42;100721.22;10182197;23;19928;-79
2022/11/26 13:27:21;;;;;;;;;;;;;;;8.70;89.90;100724.72;10182363;23;19935;-78
2022/11/26 13:31:32;;;;;;;;;;;;;;;8.76;90.08;100713.63;10181757;23;20336;-79
2022/11/26 13:35:45;;;;;;;;;;;;;;;8.77;89.91;100715.38;10157702;23;19963;-79
2022/11/26 13:40:19;;;;;;;;;;;;;;;8.82;89.09;100712.91;10182392;23;20653;-79
2022/11/26 13:44:51;;;;;;;;;;;;;;;8.90;88.54;100719.13;10117426;23;19955;-79
2022/11/26 13:49:07;;;;;;;;;;;;;;;8.93;88.67;100716.59;10146364;23;19932;-79
2022/11/26 13:53:20;;;;;;;;;;;;;;;9.00;89.19;100710.75;10152184;23;20255;-80
2022/11/26 13:57:34;;;;;;;;;;;;;;;9.06;89.96;100714.34;10177169;23;19921;-78
2022/11/26 14:01:39;;;;;;;;;;;;;;;9.09;89.67;100717.00;10169922;23;19952;-80
2022/11/26 14:05:47;;;;;;;;;;;;;;;9.01;88.90;100728.03;10177898;23;19935;-79
2022/11/26 14:09:59;;;;;;;;;;;;;;;8.93;88.42;100729.56;10176075;23;19929;-80
2022/11/26 14:14:19;;;;;;;;;;;;;;;8.83;88.66;100720.72;10177810;23;19925;-81
2022/11/26 14:18:40;;;;;;;;;;;;;;;8.77;89.67;100700.69;10145569;23;19928;-80
2022/11/26 14:22:42;;;;;;;;;;;;;;;8.71;89.25;100704.88;10153406;23;19985;-81
2022/11/26 14:26:44;;;;;;;;;;;;;;;8.62;89.60;100709.84;10180047;23;19925;-79
2022/11/26 14:30:45;;;;;;;;;;;;;;;8.58;89.83;100715.75;10175193;23;20715;-80
2022/11/26 14:34:56;;;;;;;;;;;;;;;8.51;89.69;100719.03;10156538;23;20629;-80
2022/11/26 14:39:03;;;;;;;;;;;;;;;8.51;89.75;100716.44;10180545;23;19936;-79
2022/11/26 14:43:15;;;;;;;;;;;;;;;8.53;89.64;100701.84;10181199;23;19921;-78
2022/11/26 14:47:19;;;;;;;;;;;;;;;8.56;89.98;100697.59;10176315;23;19925;-80
2022/11/26 14:51:22;;;;;;;;;;;;;;;8.49;90.59;100680.19;10174517;23;19952;-81
2022/11/26 14:55:26;;;;;;;;;;;;;;;8.39;90.56;100675.59;10175104;23;20008;-78
2022/11/26 14:59:29;;;;;;;;;;;;;;;8.26;90.36;100660.56;10174000;23;19963;-78
2022/11/26 15:03:30;;;;;;;;;;;;;;;8.13;90.98;100657.69;10147195;23;19986;-79
2022/11/26 15:07:32;;;;;;;;;;;;;;;8.00;90.94;100652.13;10176828;23;19936;-79
2022/11/26 15:11:35;;;;;;;;;;;;;;;7.87;91.02;100654.38;10175015;23;20360;-77
2022/11/26 15:15:36;;;;;;;;;;;;;;;7.80;91.74;100644.72;10169128;23;19925;-77
2022/11/26 15:19:39;;;;;;;;;;;;;;;7.67;91.82;100640.06;10187834;23;19928;-76
2022/11/26 15:23:40;;;;;;;;;;;;;;;7.51;91.66;100643.06;10168739;23;19924;-76
2022/11/26 15:27:54;;;;;;;;;;;;;;;7.42;92.46;100641.09;10166181;23;19940;-76
2022/11/26 15:31:56;;;;;;;;;;;;;;;7.33;92.59;100632.19;10165956;23;20280;-77
2022/11/26 15:35:58;;;;;;;;;;;;;;;7.21;92.93;100646.53;10172015;23;20011;-77
2022/11/26 15:40:18;;;;;;;;;;;;;;;7.12;93.02;100650.53;10171404;23;19924;-76
2022/11/26 15:44:21;;;;;;;;;;;;;;;7.02;93.42;100656.28;10147276;23;19924;-76
2022/11/26 15:48:43;;;;;;;;;;;;;;;6.91;93.62;100664.56;10143732;23;20396;-76
2022/11/26 15:52:54;;;;;;;;;;;;;;;6.76;94.08;100666.66;10149590;23;19924;-76
2022/11/26 15:56:58;;;;;;;;;;;;;;;6.69;94.21;100666.44;10170071;23;19963;-76
2022/11/26 16:01:15;;;;;;;;;;;;;;;6.60;94.77;100661.84;10162730;23;20236;-76
2022/11/26 16:05:21;;;;;;;;;;;;;;;6.45;94.47;100664.78;10170446;23;19951;-76
2022/11/26 16:09:24;;;;;;;;;;;;;;;6.31;95.17;100668.66;10194035;23;19982;-76
2022/11/26 16:13:29;;;;;;;;;;;;;;;6.14;94.58;100664.63;10172455;23;19994;-76
2022/11/26 16:17:31;;;;;;;;;;;;;;;6.14;96.15;100664.63;10167125;23;19924;-77
2022/11/26 16:21:33;;;;;;;;;;;;;;;6.16;96.94;100666.44;10149412;23;19937;-76
2022/11/26 16:25:35;;;;;;;;;;;;;;;6.16;97.11;100675.88;10174242;23;19956;-75
2022/11/26 16:29:37;;;;;;;;;;;;;;;6.13;97.41;100675.78;10172859;23;19967;-76
2022/11/26 16:33:38;;;;;;;;;;;;;;;6.09;97.40;100667.03;10143183;23;19951;-75
2022/11/26 16:37:43;;;;;;;;;;;;;;;6.05;97.45;100660.03;10173317;23;20490;-74
2022/11/26 16:41:45;;;;;;;;;;;;;;;6.01;97.78;100671.94;10172861;23;20023;-76
2022/11/26 16:45:47;;;;;;;;;;;;;;;6.03;98.25;100675.44;10174002;23;20000;-74
2022/11/26 16:49:48;;;;;;;;;;;;;;;6.04;98.18;100678.88;10174240;23;20267;-75
2022/11/26 16:53:50;;;;;;;;;;;;;;;6.03;98.41;100680.59;10175054;23;19932;-75
2022/11/26 16:57:56;;;;;;;;;;;;;;;6.05;98.68;100685.81;10176599;23;19948;-75
2022/11/26 17:01:58;;;;;;;;;;;;;;;6.03;98.88;100696.06;10168809;23;19995;-74
2022/11/26 17:06:05;;;;;;;;;;;;;;;6.05;99.43;100686.69;10153198;23;20035;-75
2022/11/26 17:10:13;;;;;;;;;;;;;;;6.09;99.57;100689.34;10150755;23;19924;-74
2022/11/26 17:14:14;;;;;;;;;;;;;;;6.07;99.63;100685.03;10152184;23;19995;-74
2022/11/26 17:18:20;;;;;;;;;;;;;;;6.09;99.90;100677.34;10166575;23;20015;-74
2022/11/26 17:22:22;;;;;;;;;;;;;;;6.12;100.00;100671.44;10151165;23;20355;-74
2022/11/26 17:26:24;;;;;;;;;;;;;;;6.07;99.95;100666.09;10152490;23;19925;-75
2022/11/26 17:30:26;;;;;;;;;;;;;;;6.06;99.96;100662.66;10168150;23;19940;-74
2022/11/26 17:34:27;;;;;;;;;;;;;;;6.07;100.00;100663.53;10175181;23;20037;-74
2022/11/26 17:38:28;;;;;;;;;;;;;;;6.02;100.00;100660.78;10149639;23;19925;-74
2022/11/26 17:42:31;;;;;;;;;;;;;;;5.95;99.66;100658.84;10177588;23;20032;-76
2022/11/26 17:46:37;;;;;;;;;;;;;;;5.92;99.63;100658.72;10131667;23;19952;-75
2022/11/26 17:50:59;;;;;;;;;;;;;;;5.87;99.68;100670.53;10125249;23;19935;-75
2022/11/26 17:55:00;;;;;;;;;;;;;;;5.86;99.92;100671.38;10080815;23;20638;-75
2022/11/26 17:59:01;;;;;;;;;;;;;;;5.84;99.91;100675.59;10127887;23;20385;-75
2022/11/26 18:03:03;;;;;;;;;;;;;;;5.83;99.95;100685.84;10154332;23;19969;-74
2022/11/26 18:07:16;;;;;;;;;;;;;;;5.89;100.00;100686.06;10175462;23;19963;-75
2022/11/26 18:11:17;;;;;;;;;;;;;;;5.91;100.00;100690.47;10148147;23;19986;-75
2022/11/26 18:15:20;;;;;;;;;;;;;;;5.94;100.00;100700.03;10167426;23;19928;-75
2022/11/26 18:19:22;;;;;;;;;;;;;;;5.92;100.00;100686.19;10202388;23;19964;-76
2022/11/26 18:23:23;;;;;;;;;;;;;;;5.97;100.00;100694.97;10203840;23;19924;-76
2022/11/26 18:27:25;;;;;;;;;;;;;;;5.99;100.00;100685.59;10194478;23;20316;-75
2022/11/26 18:31:28;;;;;;;;;;;;;;;6.05;100.00;100680.66;10188469;23;19981;-75
2022/11/26 18:35:29;;;;;;;;;;;;;;;6.09;100.00;100674.75;10179878;23;19925;-75
2022/11/26 18:39:30;;;;;;;;;;;;;;;6.14;100.00;100665.50;10175339;23;20011;-75
2022/11/26 18:43:33;;;;;;;;;;;;;;;6.13;100.00;100663.75;10177700;23;19925;-74
2022/11/26 18:47:34;;;;;;;;;;;;;;;6.16;100.00;100665.56;10168309;23;20368;-75
2022/11/26 18:51:35;;;;;;;;;;;;;;;6.12;100.00;100663.69;10171788;23;20545;-75
2022/11/26 18:55:38;;;;;;;;;;;;;;;6.13;100.00;100660.28;10169483;23;20213;-75
2022/11/26 18:59:39;;;;;;;;;;;;;;;6.11;100.00;100654.22;10170989;23;19932;-75
2022/11/26 19:03:42;;;;;;;;;;;;;;;6.09;100.00;100658.41;10141232;23;20549;-75
2022/11/26 19:07:44;;;;;;;;;;;;;;;6.14;100.00;100649.16;10172380;23;19959;-75
2022/11/26 19:11:46;;;;;;;;;;;;;;;6.16;100.00;100643.22;10171601;23;19924;-75
2022/11/26 19:15:47;;;;;;;;;;;;;;;6.17;100.00;100639.81;10166052;23;19928;-75
2022/11/26 19:19:49;;;;;;;;;;;;;;;6.13;100.00;100637.09;10144868;23;19948;-75
2022/11/26 19:23:51;;;;;;;;;;;;;;;6.10;99.96;100632.69;10172629;23;19951;-74
2022/11/26 19:27:52;;;;;;;;;;;;;;;6.02;99.86;100637.59;10172786;23;19924;-75
2022/11/26 19:31:55;;;;;;;;;;;;;;;5.98;99.68;100621.97;10169296;23;19979;-74
2022/11/26 19:35:57;;;;;;;;;;;;;;;5.93;99.59;100611.53;10146834;23;19928;-76
2022/11/26 19:39:58;;;;;;;;;;;;;;;5.90;99.68;100607.94;10170595;23;19925;-75
2022/11/26 19:44:02;;;;;;;;;;;;;;;5.85;99.97;100606.88;10172479;23;19952;-74
2022/11/26 19:48:03;;;;;;;;;;;;;;;5.80;99.84;100609.31;10194136;23;19925;-74
2022/11/26 19:52:05;;;;;;;;;;;;;;;5.79;99.90;100602.41;10176337;23;19925;-75
2022/11/26 19:56:08;;;;;;;;;;;;;;;5.80;100.00;100598.13;10176532;23;20113;-75
2022/11/26 20:00:10;;;;;;;;;;;;;;;5.73;100.00;100587.59;10169766;23;19963;-74
2022/11/26 20:04:13;;;;;;;;;;;;;;;5.72;100.00;100580.69;10198692;23;19932;-75
2022/11/26 20:08:15;;;;;;;;;;;;;;;5.69;100.00;100596.03;10175771;23;19967;-75
2022/11/26 20:12:16;;;;;;;;;;;;;;;5.64;100.00;100589.00;10174328;23;19924;-75
2022/11/26 20:16:22;;;;;;;;;;;;;;;5.58;100.00;100575.91;10167855;23;19953;-75
2022/11/26 20:20:23;;;;;;;;;;;;;;;5.56;100.00;100575.81;10170033;23;19933;-75
2022/11/26 20:24:25;;;;;;;;;;;;;;;5.49;99.91;100575.56;10174899;23;20387;-75
2022/11/26 20:28:26;;;;;;;;;;;;;;;5.35;100.00;100583.69;10175170;23;20259;-74
2022/11/26 20:32:28;;;;;;;;;;;;;;;5.19;99.14;100583.94;10173920;23;19925;-75
2022/11/26 20:36:29;;;;;;;;;;;;;;;5.07;99.55;100586.97;10152602;23;19960;-75
2022/11/26 20:40:31;;;;;;;;;;;;;;;4.88;98.96;100589.69;10151976;23;19924;-75
2022/11/26 20:44:32;;;;;;;;;;;;;;;4.76;99.19;100605.53;10176094;23;20035;-75
2022/11/26 20:48:35;;;;;;;;;;;;;;;4.64;98.80;100606.75;10168250;23;19924;-75